createdAt,value
2019-03-21T00:00:39.010Z,5.42
2019-03-21T00:02:03.468Z,5.38
2019-03-21T00:03:11.566Z,5.36
2019-03-21T00:04:19.930Z,5.34
2019-03-21T00:05:31.202Z,5.31
2019-03-21T00:06:39.400Z,5.31
2019-03-21T00:07:48.425Z,5.30
2019-03-21T00:08:56.420Z,5.25
2019-03-21T00:10:33.424Z,5.24
2019-03-21T00:12:11.214Z,5.19
2019-03-21T00:13:19.481Z,5.13
2019-03-21T00:14:40.789Z,5.12
2019-03-21T00:15:59.547Z,5.10
2019-03-21T00:17:15.355Z,5.09
2019-03-21T00:18:23.510Z,5.07
2019-03-21T00:19:31.610Z,5.05
2019-03-21T00:20:39.604Z,5.05
2019-03-21T00:21:47.734Z,5.07
2019-03-21T00:22:55.826Z,5.04
2019-03-21T00:24:03.894Z,5.04
2019-03-21T00:25:22.670Z,5.01
2019-03-21T00:26:31.410Z,4.99
2019-03-21T00:27:39.695Z,4.95
2019-03-21T00:28:48.077Z,4.91
2019-03-21T00:29:56.251Z,4.88
2019-03-21T00:31:04.453Z,4.85
2019-03-21T00:32:12.650Z,4.82
2019-03-21T00:33:21.157Z,4.78
2019-03-21T00:34:29.563Z,4.76
2019-03-21T00:35:38.654Z,4.74
2019-03-21T00:36:47.211Z,4.73
2019-03-21T00:37:55.289Z,4.67
2019-03-21T00:39:03.382Z,4.61
2019-03-21T00:40:30.699Z,4.59
2019-03-21T00:41:38.798Z,4.58
2019-03-21T00:42:47.643Z,4.54
2019-03-21T00:43:55.872Z,4.53
2019-03-21T00:45:05.377Z,4.47
2019-03-21T00:46:13.590Z,4.47
2019-03-21T00:47:21.797Z,4.48
2019-03-21T00:48:30.072Z,4.47
2019-03-21T00:49:38.086Z,4.46
2019-03-21T00:50:46.476Z,4.49
2019-03-21T00:51:54.589Z,4.47
2019-03-21T00:53:02.877Z,4.47
2019-03-21T00:54:11.018Z,4.44
2019-03-21T00:55:19.119Z,4.42
2019-03-21T00:56:27.363Z,4.40
2019-03-21T00:57:35.764Z,4.40
2019-03-21T00:58:43.853Z,4.39
2019-03-21T00:59:51.851Z,4.36
2019-03-21T01:01:07.145Z,4.38
2019-03-21T01:02:15.429Z,4.38
2019-03-21T01:03:24.129Z,4.37
2019-03-21T01:04:32.559Z,4.32
2019-03-21T01:05:40.475Z,4.29
2019-03-21T01:06:49.061Z,4.26
2019-03-21T01:07:57.080Z,4.24
2019-03-21T01:09:08.238Z,4.25
2019-03-21T01:10:29.002Z,4.26
2019-03-21T01:11:36.995Z,4.26
2019-03-21T01:12:45.817Z,4.30
2019-03-21T01:13:54.034Z,4.30
2019-03-21T01:15:02.042Z,4.28
2019-03-21T01:16:10.193Z,4.27
2019-03-21T01:17:18.406Z,4.26
2019-03-21T01:18:26.429Z,4.27
2019-03-21T01:19:34.417Z,4.30
2019-03-21T01:20:42.717Z,4.29
2019-03-21T01:21:51.095Z,4.31
2019-03-21T01:22:59.097Z,4.33
2019-03-21T01:24:07.215Z,4.33
2019-03-21T01:25:42.537Z,4.31
2019-03-21T01:26:51.040Z,4.34
2019-03-21T01:27:59.009Z,4.31
2019-03-21T01:29:07.131Z,4.26
2019-03-21T01:30:21.431Z,4.27
2019-03-21T01:31:29.576Z,4.24
2019-03-21T01:32:37.400Z,4.20
2019-03-21T01:33:45.569Z,4.18
2019-03-21T01:34:53.493Z,4.17
2019-03-21T01:36:02.589Z,4.17
2019-03-21T01:37:12.109Z,4.11
2019-03-21T01:38:20.505Z,4.05
2019-03-21T01:39:28.535Z,4.06
2019-03-21T01:40:52.369Z,4.05
2019-03-21T01:42:00.325Z,4.03
2019-03-21T01:43:08.713Z,3.98
2019-03-21T01:44:16.767Z,3.97
2019-03-21T01:45:27.294Z,3.96
2019-03-21T01:46:35.398Z,3.93
2019-03-21T01:47:43.533Z,3.91
2019-03-21T01:48:52.134Z,3.89
2019-03-21T01:50:00.398Z,3.87
2019-03-21T01:51:08.484Z,3.85
2019-03-21T01:52:16.578Z,3.82
2019-03-21T01:53:24.573Z,3.81
2019-03-21T01:54:32.807Z,3.79
2019-03-21T01:55:41.105Z,3.75
2019-03-21T01:56:49.767Z,3.71
2019-03-21T01:57:57.851Z,3.68
2019-03-21T01:59:05.841Z,3.68
2019-03-21T02:00:24.459Z,3.68
2019-03-21T02:01:32.512Z,3.65
2019-03-21T02:02:40.984Z,3.66
2019-03-21T02:03:49.580Z,3.67
2019-03-21T02:04:57.850Z,3.68
2019-03-21T02:06:05.992Z,3.70
2019-03-21T02:07:13.898Z,3.71
2019-03-21T02:08:21.955Z,3.72
2019-03-21T02:09:30.046Z,3.72
2019-03-21T02:10:38.063Z,3.75
2019-03-21T02:11:46.147Z,3.79
2019-03-21T02:12:54.401Z,3.82
2019-03-21T02:14:02.551Z,3.85
2019-03-21T02:15:19.743Z,3.90
2019-03-21T02:16:27.996Z,3.94
2019-03-21T02:17:36.144Z,3.99
2019-03-21T02:18:44.269Z,4.05
2019-03-21T02:19:52.643Z,4.08
2019-03-21T02:21:00.614Z,4.09
2019-03-21T02:22:10.506Z,4.12
2019-03-21T02:23:18.541Z,4.12
2019-03-21T02:24:26.944Z,4.14
2019-03-21T02:25:41.774Z,4.10
2019-03-21T02:26:50.247Z,4.11
2019-03-21T02:27:58.643Z,4.10
2019-03-21T02:29:06.680Z,4.09
2019-03-21T02:30:19.178Z,4.10
2019-03-21T02:31:27.257Z,4.10
2019-03-21T02:32:35.309Z,4.08
2019-03-21T02:33:47.339Z,4.05
2019-03-21T02:34:55.521Z,4.04
2019-03-21T02:36:07.264Z,4.06
2019-03-21T02:37:15.246Z,4.10
2019-03-21T02:38:23.201Z,4.09
2019-03-21T02:39:31.481Z,4.07
2019-03-21T02:40:40.212Z,4.11
2019-03-21T02:41:48.266Z,4.15
2019-03-21T02:42:56.819Z,4.20
2019-03-21T02:44:04.888Z,4.20
2019-03-21T02:45:16.357Z,4.19
2019-03-21T02:46:24.280Z,4.19
2019-03-21T02:47:32.656Z,4.19
2019-03-21T02:48:40.984Z,4.18
2019-03-21T02:49:48.919Z,4.17
2019-03-21T02:50:57.418Z,4.14
2019-03-21T02:52:05.463Z,4.13
2019-03-21T02:53:13.692Z,4.12
2019-03-21T02:54:21.788Z,4.12
2019-03-21T02:55:30.077Z,4.09
2019-03-21T02:56:38.383Z,4.10
2019-03-21T02:57:46.494Z,4.09
2019-03-21T02:58:54.883Z,4.08
2019-03-21T03:00:02.841Z,4.11
2019-03-21T03:01:10.978Z,4.10
2019-03-21T03:02:18.842Z,4.13
2019-03-21T03:03:26.966Z,4.18
2019-03-21T03:04:34.993Z,4.20
2019-03-21T03:05:43.047Z,4.23
2019-03-21T03:06:51.625Z,4.27
2019-03-21T03:07:59.964Z,4.29
2019-03-21T03:09:08.846Z,4.28
2019-03-21T03:10:33.154Z,4.28
2019-03-21T03:11:41.257Z,4.31
2019-03-21T03:12:49.624Z,4.29
2019-03-21T03:13:57.862Z,4.29
2019-03-21T03:15:22.042Z,4.31
2019-03-21T03:16:21.694Z,4.32
2019-03-21T03:17:29.822Z,4.29
2019-03-21T03:18:38.022Z,4.26
2019-03-21T03:19:45.951Z,4.28
2019-03-21T03:20:54.704Z,4.28
2019-03-21T03:22:02.611Z,4.29
2019-03-21T03:23:10.817Z,4.28
2019-03-21T03:24:19.220Z,4.28
2019-03-21T03:25:27.477Z,4.28
2019-03-21T03:26:35.732Z,4.25
2019-03-21T03:27:46.464Z,4.23
2019-03-21T03:28:54.870Z,4.23
2019-03-21T03:30:03.103Z,4.21
2019-03-21T03:31:11.264Z,4.22
2019-03-21T03:32:19.396Z,4.20
2019-03-21T03:33:28.132Z,4.17
2019-03-21T03:34:36.197Z,4.14
2019-03-21T03:35:44.297Z,4.13
2019-03-21T03:36:52.376Z,4.10
2019-03-21T03:38:00.478Z,4.11
2019-03-21T03:39:09.224Z,4.08
2019-03-21T03:40:24.675Z,4.03
2019-03-21T03:41:33.151Z,4.00
2019-03-21T03:42:41.139Z,3.97
2019-03-21T03:43:49.349Z,3.98
2019-03-21T03:44:57.570Z,3.98
2019-03-21T03:46:05.795Z,3.97
2019-03-21T03:47:13.551Z,3.98
2019-03-21T03:48:21.936Z,3.91
2019-03-21T03:49:30.000Z,3.88
2019-03-21T03:50:38.832Z,3.85
2019-03-21T03:51:47.190Z,3.82
2019-03-21T03:52:55.251Z,3.79
2019-03-21T03:54:03.554Z,3.80
2019-03-21T03:55:18.344Z,3.80
2019-03-21T03:56:26.729Z,3.82
2019-03-21T03:57:34.938Z,3.80
2019-03-21T03:58:47.319Z,3.79
2019-03-21T03:59:55.437Z,3.81
2019-03-21T04:01:03.728Z,3.80
2019-03-21T04:02:11.821Z,3.82
2019-03-21T04:03:20.018Z,3.81
2019-03-21T04:04:28.326Z,3.83
2019-03-21T04:05:36.537Z,3.84
2019-03-21T04:06:44.940Z,3.84
2019-03-21T04:07:53.610Z,3.86
2019-03-21T04:09:01.958Z,3.87
2019-03-21T04:10:23.359Z,3.85
2019-03-21T04:11:31.545Z,3.84
2019-03-21T04:12:39.760Z,3.82
2019-03-21T04:13:48.021Z,3.79
2019-03-21T04:14:56.052Z,3.80
2019-03-21T04:16:04.451Z,3.77
2019-03-21T04:17:12.476Z,3.79
2019-03-21T04:18:23.584Z,3.80
2019-03-21T04:19:31.813Z,3.79
2019-03-21T04:20:50.214Z,3.77
2019-03-21T04:21:58.873Z,3.79
2019-03-21T04:23:07.129Z,3.78
2019-03-21T04:24:15.630Z,3.78
2019-03-21T04:25:28.538Z,3.76
2019-03-21T04:26:39.752Z,3.73
2019-03-21T04:27:47.858Z,3.70
2019-03-21T04:28:55.875Z,3.68
2019-03-21T04:30:06.009Z,3.67
2019-03-21T04:31:14.296Z,3.67
2019-03-21T04:32:22.258Z,3.67
2019-03-21T04:33:30.593Z,3.70
2019-03-21T04:34:38.958Z,3.67
2019-03-21T04:35:47.395Z,3.65
2019-03-21T04:36:55.600Z,3.67
2019-03-21T04:38:03.698Z,3.65
2019-03-21T04:39:12.279Z,3.65
2019-03-21T04:40:20.626Z,3.63
2019-03-21T04:41:28.681Z,3.65
2019-03-21T04:42:36.804Z,3.68
2019-03-21T04:43:44.912Z,3.71
2019-03-21T04:44:53.007Z,3.70
2019-03-21T04:46:03.565Z,3.71
2019-03-21T04:47:11.301Z,3.71
2019-03-21T04:48:19.453Z,3.68
2019-03-21T04:49:27.633Z,3.65
2019-03-21T04:50:41.517Z,3.65
2019-03-21T04:51:49.558Z,3.63
2019-03-21T04:52:57.775Z,3.62
2019-03-21T04:54:06.524Z,3.60
2019-03-21T04:55:17.146Z,3.62
2019-03-21T04:56:25.458Z,3.59
2019-03-21T04:57:33.626Z,3.60
2019-03-21T04:58:41.927Z,3.62
2019-03-21T04:59:50.224Z,3.66
2019-03-21T05:00:59.787Z,3.63
2019-03-21T05:02:07.959Z,3.60
2019-03-21T05:03:28.513Z,3.58
2019-03-21T05:04:36.651Z,3.63
2019-03-21T05:05:44.938Z,3.64
2019-03-21T05:06:53.259Z,3.63
2019-03-21T05:08:02.089Z,3.63
2019-03-21T05:09:13.417Z,3.62
2019-03-21T05:10:21.192Z,3.62
2019-03-21T05:11:29.425Z,3.65
2019-03-21T05:12:37.946Z,3.65
2019-03-21T05:13:45.944Z,3.65
2019-03-21T05:14:54.226Z,3.68
2019-03-21T05:16:14.059Z,3.68
2019-03-21T05:17:12.784Z,3.67
2019-03-21T05:18:28.221Z,3.70
2019-03-21T05:19:36.360Z,3.75
2019-03-21T05:20:44.542Z,3.80
2019-03-21T05:21:52.781Z,3.83
2019-03-21T05:23:01.662Z,3.82
2019-03-21T05:24:09.605Z,3.87
2019-03-21T05:25:17.627Z,3.90
2019-03-21T05:26:26.057Z,3.91
2019-03-21T05:27:34.259Z,3.93
2019-03-21T05:28:42.356Z,3.94
2019-03-21T05:29:50.552Z,3.98
2019-03-21T05:31:18.320Z,3.98
2019-03-21T05:32:26.246Z,3.97
2019-03-21T05:33:34.132Z,3.95
2019-03-21T05:34:42.255Z,3.96
2019-03-21T05:35:50.703Z,3.97
2019-03-21T05:36:58.737Z,3.96
2019-03-21T05:38:07.091Z,3.92
2019-03-21T05:39:14.923Z,3.91
2019-03-21T05:40:23.287Z,3.92
2019-03-21T05:41:31.282Z,3.92
2019-03-21T05:42:39.683Z,3.95
2019-03-21T05:44:01.562Z,3.96
2019-03-21T05:45:20.148Z,3.98
2019-03-21T05:46:28.370Z,4.01
2019-03-21T05:47:36.524Z,4.00
2019-03-21T05:48:44.950Z,4.01
2019-03-21T05:49:53.115Z,4.03
2019-03-21T05:51:01.220Z,4.04
2019-03-21T05:52:09.658Z,4.04
2019-03-21T05:53:17.775Z,4.04
2019-03-21T05:54:26.147Z,4.04
2019-03-21T05:55:34.476Z,4.05
2019-03-21T05:56:42.453Z,4.08
2019-03-21T05:57:51.024Z,4.11
2019-03-21T05:58:58.877Z,4.10
2019-03-21T06:00:36.819Z,4.12
2019-03-21T06:01:45.248Z,4.13
2019-03-21T06:02:53.548Z,4.14
2019-03-21T06:04:01.956Z,4.17
2019-03-21T06:05:10.970Z,4.18
2019-03-21T06:06:25.971Z,4.23
2019-03-21T06:07:39.709Z,4.25
2019-03-21T06:08:48.002Z,4.26
2019-03-21T06:09:56.365Z,4.26
2019-03-21T06:11:04.926Z,4.28
2019-03-21T06:12:13.373Z,4.29
2019-03-21T06:13:21.747Z,4.28
2019-03-21T06:14:33.455Z,4.32
2019-03-21T06:15:44.954Z,4.33
2019-03-21T06:16:53.228Z,4.32
2019-03-21T06:18:46.723Z,4.33
2019-03-21T06:20:07.932Z,4.38
2019-03-21T06:21:41.721Z,4.40
2019-03-21T06:23:02.676Z,4.40
2019-03-21T06:24:24.360Z,4.43
2019-03-21T06:25:57.800Z,4.49
2019-03-21T06:27:28.122Z,4.55
2019-03-21T06:28:36.270Z,4.59
2019-03-21T06:29:44.739Z,4.62
2019-03-21T06:30:53.125Z,4.62
2019-03-21T06:32:01.504Z,4.66
2019-03-21T06:33:09.809Z,4.72
2019-03-21T06:34:17.919Z,4.79
2019-03-21T06:35:26.055Z,4.81
2019-03-21T06:36:34.652Z,4.85
2019-03-21T06:37:43.360Z,4.86
2019-03-21T06:38:51.725Z,4.85
2019-03-21T06:40:00.024Z,4.89
2019-03-21T06:41:08.793Z,4.89
2019-03-21T06:42:16.972Z,4.90
2019-03-21T06:43:25.496Z,4.92
2019-03-21T06:44:34.023Z,4.93
2019-03-21T06:45:47.951Z,4.94
2019-03-21T06:46:52.341Z,5.00
2019-03-21T06:48:00.837Z,5.04
2019-03-21T06:49:09.420Z,5.04
2019-03-21T06:50:17.987Z,5.09
2019-03-21T06:51:25.859Z,5.10
2019-03-21T06:52:34.406Z,5.08
2019-03-21T06:53:42.633Z,5.09
2019-03-21T06:54:51.383Z,5.08
2019-03-21T06:55:59.880Z,5.12
2019-03-21T06:57:08.216Z,5.16
2019-03-21T06:58:16.906Z,5.17
2019-03-21T06:59:25.048Z,5.20
2019-03-21T07:00:33.393Z,5.21
2019-03-21T07:01:41.589Z,5.23
2019-03-21T07:02:49.778Z,5.22
2019-03-21T07:04:06.631Z,5.23
2019-03-21T07:05:09.359Z,5.24
2019-03-21T07:06:17.239Z,5.28
2019-03-21T07:07:25.323Z,5.29
2019-03-21T07:08:34.155Z,5.30
2019-03-21T07:09:42.268Z,5.30
2019-03-21T07:10:50.349Z,5.33
2019-03-21T07:11:58.756Z,5.34
2019-03-21T07:13:06.828Z,5.36
2019-03-21T07:14:15.004Z,5.38
2019-03-21T07:15:23.122Z,5.39
2019-03-21T07:16:31.392Z,5.41
2019-03-21T07:17:39.555Z,5.41
2019-03-21T07:18:47.604Z,5.42
2019-03-21T07:19:55.947Z,5.47
2019-03-21T07:21:04.295Z,5.46
2019-03-21T07:22:12.639Z,5.48
2019-03-21T07:23:21.069Z,5.49
2019-03-21T07:24:29.357Z,5.52
2019-03-21T07:25:37.615Z,5.56
2019-03-21T07:26:45.758Z,5.60
2019-03-21T07:27:53.821Z,5.66
2019-03-21T07:29:02.039Z,5.71
2019-03-21T07:30:14.587Z,5.76
2019-03-21T07:31:22.568Z,5.83
2019-03-21T07:32:33.588Z,5.86
2019-03-21T07:33:40.489Z,5.87
2019-03-21T07:34:48.563Z,5.90
2019-03-21T07:35:56.574Z,5.95
2019-03-21T07:37:05.153Z,5.99
2019-03-21T07:38:13.551Z,6.01
2019-03-21T07:39:21.665Z,6.02
2019-03-21T07:40:29.474Z,6.05
2019-03-21T07:41:37.817Z,6.04
2019-03-21T07:42:46.189Z,6.04
2019-03-21T07:43:54.390Z,6.07
2019-03-21T07:45:02.384Z,6.13
2019-03-21T07:46:10.868Z,6.14
2019-03-21T07:47:19.168Z,6.18
2019-03-21T07:48:27.265Z,6.22
2019-03-21T07:49:35.296Z,6.25
2019-03-21T07:50:43.451Z,6.28
2019-03-21T07:51:51.877Z,6.30
2019-03-21T07:53:00.549Z,6.28
2019-03-21T07:54:08.999Z,6.26
2019-03-21T07:55:17.177Z,6.29
2019-03-21T07:56:25.180Z,6.28
2019-03-21T07:57:33.591Z,6.29
2019-03-21T07:58:41.746Z,6.28
2019-03-21T07:59:50.197Z,6.29
2019-03-21T08:00:58.392Z,6.31
2019-03-21T08:02:06.748Z,6.30
2019-03-21T08:03:15.429Z,6.30
2019-03-21T08:04:23.711Z,6.29
2019-03-21T08:05:39.684Z,6.31
2019-03-21T08:06:41.756Z,6.31
2019-03-21T08:07:50.147Z,6.32
2019-03-21T08:08:57.943Z,6.33
2019-03-21T08:10:12.998Z,6.35
2019-03-21T08:11:21.243Z,6.35
2019-03-21T08:12:29.686Z,6.38
2019-03-21T08:13:37.721Z,6.40
2019-03-21T08:14:45.943Z,6.39
2019-03-21T08:15:54.313Z,6.43
2019-03-21T08:17:02.585Z,6.41
2019-03-21T08:18:10.908Z,6.42
2019-03-21T08:19:18.922Z,6.43
2019-03-21T08:20:26.939Z,6.46
2019-03-21T08:21:35.203Z,6.48
2019-03-21T08:22:43.374Z,6.51
2019-03-21T08:23:51.557Z,6.50
2019-03-21T08:25:00.379Z,6.53
2019-03-21T08:26:08.564Z,6.53
2019-03-21T08:27:16.707Z,6.56
2019-03-21T08:28:24.990Z,6.58
2019-03-21T08:29:33.207Z,6.58
2019-03-21T08:31:06.192Z,6.61
2019-03-21T08:32:14.489Z,6.62
2019-03-21T08:33:22.320Z,6.63
2019-03-21T08:34:30.448Z,6.66
2019-03-21T08:35:38.408Z,6.68
2019-03-21T08:36:46.475Z,6.69
2019-03-21T08:37:54.651Z,6.71
2019-03-21T08:39:02.822Z,6.73
2019-03-21T08:40:11.258Z,6.75
2019-03-21T08:41:19.498Z,6.76
2019-03-21T08:42:27.598Z,6.75
2019-03-21T08:43:35.650Z,6.77
2019-03-21T08:44:43.662Z,6.78
2019-03-21T08:45:52.093Z,6.79
2019-03-21T08:47:00.224Z,6.80
2019-03-21T08:48:08.679Z,6.81
2019-03-21T08:49:16.714Z,6.81
2019-03-21T08:50:25.269Z,6.80
2019-03-21T08:51:33.450Z,6.80
2019-03-21T08:52:41.847Z,6.80
2019-03-21T08:53:50.751Z,6.83
2019-03-21T08:54:58.817Z,6.85
2019-03-21T08:56:07.288Z,6.87
2019-03-21T08:57:15.782Z,6.94
2019-03-21T08:58:23.803Z,6.94
2019-03-21T08:59:31.922Z,6.93
2019-03-21T09:00:40.024Z,6.89
2019-03-21T09:01:48.213Z,6.88
2019-03-21T09:02:56.467Z,6.87
2019-03-21T09:04:04.614Z,6.87
2019-03-21T09:05:13.179Z,6.85
2019-03-21T09:06:21.384Z,6.83
2019-03-21T09:07:29.641Z,6.84
2019-03-21T09:08:37.802Z,6.85
2019-03-21T09:09:45.933Z,6.86
2019-03-21T09:10:54.485Z,6.87
2019-03-21T09:12:02.411Z,6.89
2019-03-21T09:13:11.282Z,6.91
2019-03-21T09:14:19.299Z,6.94
2019-03-21T09:15:27.440Z,6.97
2019-03-21T09:16:35.791Z,7.02
2019-03-21T09:17:43.819Z,7.06
2019-03-21T09:18:52.301Z,7.10
2019-03-21T09:20:00.447Z,7.13
2019-03-21T09:21:18.879Z,7.15
2019-03-21T09:22:18.024Z,7.19
2019-03-21T09:23:26.062Z,7.23
2019-03-21T09:24:34.356Z,7.28
2019-03-21T09:25:44.335Z,7.34
2019-03-21T09:26:52.582Z,7.37
2019-03-21T09:28:02.985Z,7.37
2019-03-21T09:29:10.919Z,7.39
2019-03-21T09:30:18.836Z,7.40
2019-03-21T09:31:27.030Z,7.42
2019-03-21T09:32:35.078Z,7.44
2019-03-21T09:33:43.160Z,7.48
2019-03-21T09:34:52.127Z,7.53
2019-03-21T09:36:00.261Z,7.59
2019-03-21T09:37:08.460Z,7.63
2019-03-21T09:38:16.525Z,7.65
2019-03-21T09:39:24.655Z,7.68
2019-03-21T09:40:33.087Z,7.69
2019-03-21T09:41:41.031Z,7.71
2019-03-21T09:42:49.211Z,7.76
2019-03-21T09:43:57.306Z,7.79
2019-03-21T09:45:09.631Z,7.79
2019-03-21T09:46:18.023Z,7.80
2019-03-21T09:47:26.055Z,7.83
2019-03-21T09:48:34.218Z,7.88
2019-03-21T09:49:42.196Z,7.87
2019-03-21T09:50:50.331Z,7.92
2019-03-21T09:51:58.391Z,7.96
2019-03-21T09:53:06.955Z,7.99
2019-03-21T09:54:15.405Z,8.00
2019-03-21T09:55:23.743Z,8.03
2019-03-21T09:56:32.562Z,8.06
2019-03-21T09:57:40.623Z,8.08
2019-03-21T09:58:48.480Z,8.14
2019-03-21T09:59:56.348Z,8.17
2019-03-21T10:01:04.599Z,8.21
2019-03-21T10:02:12.857Z,8.24
2019-03-21T10:03:21.004Z,8.25
2019-03-21T10:04:29.218Z,8.28
2019-03-21T10:05:37.355Z,8.29
2019-03-21T10:06:45.356Z,8.30
2019-03-21T10:07:53.314Z,8.33
2019-03-21T10:09:01.376Z,8.36
2019-03-21T10:10:11.214Z,8.38
2019-03-21T10:11:19.462Z,8.41
2019-03-21T10:12:27.927Z,8.44
2019-03-21T10:13:36.046Z,8.46
2019-03-21T10:14:44.523Z,8.47
2019-03-21T10:15:52.926Z,8.52
2019-03-21T10:17:01.083Z,8.56
2019-03-21T10:18:09.324Z,8.61
2019-03-21T10:19:17.418Z,8.63
2019-03-21T10:20:25.750Z,8.67
2019-03-21T10:21:42.835Z,8.69
2019-03-21T10:22:43.869Z,8.71
2019-03-21T10:23:52.010Z,8.72
2019-03-21T10:24:59.998Z,8.71
2019-03-21T10:26:08.256Z,8.73
2019-03-21T10:27:16.963Z,8.73
2019-03-21T10:28:25.005Z,8.76
2019-03-21T10:29:33.175Z,8.77
2019-03-21T10:30:43.004Z,8.81
2019-03-21T10:31:51.563Z,8.85
2019-03-21T10:32:59.511Z,8.87
2019-03-21T10:34:07.759Z,8.90
2019-03-21T10:35:16.209Z,8.91
2019-03-21T10:36:25.333Z,8.94
2019-03-21T10:37:33.547Z,8.96
2019-03-21T10:38:41.728Z,8.99
2019-03-21T10:39:49.822Z,9.02
2019-03-21T10:40:58.225Z,9.04
2019-03-21T10:42:06.152Z,9.06
2019-03-21T10:43:15.237Z,9.07
2019-03-21T10:44:23.342Z,9.10
2019-03-21T10:45:31.518Z,9.14
2019-03-21T10:46:39.683Z,9.19
2019-03-21T10:47:48.135Z,9.23
2019-03-21T10:48:56.336Z,9.28
2019-03-21T10:50:06.529Z,9.30
2019-03-21T10:51:14.899Z,9.32
2019-03-21T10:52:23.274Z,9.37
2019-03-21T10:53:31.282Z,9.41
2019-03-21T10:54:39.503Z,9.42
2019-03-21T10:55:47.477Z,9.43
2019-03-21T10:56:55.727Z,9.44
2019-03-21T10:58:04.077Z,9.44
2019-03-21T10:59:12.124Z,9.44
2019-03-21T11:00:20.277Z,9.44
2019-03-21T11:01:30.014Z,9.45
2019-03-21T11:02:38.332Z,9.45
2019-03-21T11:03:46.413Z,9.45
2019-03-21T11:04:54.317Z,9.49
2019-03-21T11:06:02.351Z,9.49
2019-03-21T11:07:08.847Z,9.54
2019-03-21T11:08:17.063Z,9.56
2019-03-21T11:09:25.152Z,9.60
2019-03-21T11:10:33.172Z,9.60
2019-03-21T11:11:41.329Z,9.61
2019-03-21T11:12:49.376Z,9.63
2019-03-21T11:13:57.848Z,9.67
2019-03-21T11:15:07.599Z,9.68
2019-03-21T11:16:15.768Z,9.70
2019-03-21T11:17:23.719Z,9.74
2019-03-21T11:18:36.109Z,9.77
2019-03-21T11:19:41.520Z,9.79
2019-03-21T11:20:49.703Z,9.81
2019-03-21T11:22:05.687Z,9.83
2019-03-21T11:23:08.712Z,9.86
2019-03-21T11:24:17.138Z,9.86
2019-03-21T11:25:25.364Z,9.90
2019-03-21T11:26:33.505Z,9.94
2019-03-21T11:27:41.536Z,9.94
2019-03-21T11:28:49.599Z,9.96
2019-03-21T11:29:57.657Z,9.96
2019-03-21T11:31:05.881Z,9.95
2019-03-21T11:32:14.576Z,10.01
2019-03-21T11:33:22.659Z,10.00
2019-03-21T11:34:30.999Z,10.01
2019-03-21T11:35:39.339Z,10.03
2019-03-21T11:36:47.368Z,10.06
2019-03-21T11:37:55.487Z,10.12
2019-03-21T11:39:05.100Z,10.14
2019-03-21T11:40:13.159Z,10.17
2019-03-21T11:41:21.593Z,10.21
2019-03-21T11:42:29.591Z,10.20
2019-03-21T11:43:37.671Z,10.22
2019-03-21T11:44:45.688Z,10.21
2019-03-21T11:45:55.340Z,10.20
2019-03-21T11:47:03.679Z,10.19
2019-03-21T11:48:11.966Z,10.17
2019-03-21T11:49:19.995Z,10.19
2019-03-21T11:50:28.428Z,10.21
2019-03-21T11:51:36.834Z,10.25
2019-03-21T11:52:45.431Z,10.27
2019-03-21T11:53:53.723Z,10.28
2019-03-21T11:55:02.288Z,10.28
2019-03-21T11:56:12.875Z,10.26
2019-03-21T11:57:20.060Z,10.28
2019-03-21T11:58:28.314Z,10.27
2019-03-21T11:59:50.427Z,10.28
2019-03-21T12:00:46.729Z,10.28
2019-03-21T12:01:55.053Z,10.29
2019-03-21T12:03:04.362Z,10.26
2019-03-21T12:04:12.558Z,10.27
2019-03-21T12:05:20.765Z,10.28
2019-03-21T12:06:29.157Z,10.27
2019-03-21T12:07:37.376Z,10.24
2019-03-21T12:08:45.736Z,10.25
2019-03-21T12:09:53.726Z,10.23
2019-03-21T12:11:01.756Z,10.24
2019-03-21T12:12:09.849Z,10.25
2019-03-21T12:13:18.484Z,10.30
2019-03-21T12:14:26.353Z,10.35
2019-03-21T12:15:34.736Z,10.36
2019-03-21T12:16:42.820Z,10.40
2019-03-21T12:17:50.948Z,10.43
2019-03-21T12:18:59.041Z,10.46
2019-03-21T12:20:10.364Z,10.48
2019-03-21T12:21:18.884Z,10.50
2019-03-21T12:22:30.153Z,10.52
2019-03-21T12:23:36.961Z,10.55
2019-03-21T12:24:45.478Z,10.58
2019-03-21T12:25:53.776Z,10.60
2019-03-21T12:27:02.090Z,10.66
2019-03-21T12:28:10.335Z,10.71
2019-03-21T12:29:18.314Z,10.75
2019-03-21T12:30:38.047Z,10.82
2019-03-21T12:31:48.153Z,10.87
2019-03-21T12:32:56.486Z,10.89
2019-03-21T12:34:04.937Z,10.91
2019-03-21T12:35:13.393Z,10.91
2019-03-21T12:36:21.704Z,10.88
2019-03-21T12:37:29.914Z,10.87
2019-03-21T12:38:37.946Z,10.84
2019-03-21T12:39:46.098Z,10.86
2019-03-21T12:40:54.029Z,10.90
2019-03-21T12:42:02.193Z,10.97
2019-03-21T12:43:10.451Z,11.02
2019-03-21T12:44:19.060Z,11.10
2019-03-21T12:45:27.261Z,11.19
2019-03-21T12:46:35.481Z,11.20
2019-03-21T12:47:43.940Z,11.19
2019-03-21T12:48:52.079Z,11.19
2019-03-21T12:50:00.096Z,11.21
2019-03-21T12:51:08.565Z,11.24
2019-03-21T12:52:17.271Z,11.31
2019-03-21T12:53:25.377Z,11.35
2019-03-21T12:54:33.582Z,11.35
2019-03-21T12:55:41.892Z,11.36
2019-03-21T12:56:52.863Z,11.33
2019-03-21T12:57:59.679Z,11.33
2019-03-21T12:59:07.710Z,11.30
2019-03-21T13:00:18.534Z,11.33
2019-03-21T13:01:26.520Z,11.36
2019-03-21T13:02:34.685Z,11.37
2019-03-21T13:03:42.776Z,11.40
2019-03-21T13:04:50.754Z,11.44
2019-03-21T13:05:58.756Z,11.42
2019-03-21T13:07:06.919Z,11.45
2019-03-21T13:08:14.852Z,11.45
2019-03-21T13:09:23.260Z,11.44
2019-03-21T13:10:31.449Z,11.44
2019-03-21T13:11:39.306Z,11.46
2019-03-21T13:12:47.383Z,11.45
2019-03-21T13:13:55.446Z,11.46
2019-03-21T13:15:03.593Z,11.46
2019-03-21T13:16:11.518Z,11.49
2019-03-21T13:17:20.019Z,11.54
2019-03-21T13:18:28.032Z,11.55
2019-03-21T13:19:36.134Z,11.55
2019-03-21T13:20:44.746Z,11.54
2019-03-21T13:21:52.777Z,11.57
2019-03-21T13:23:00.924Z,11.58
2019-03-21T13:24:09.041Z,11.56
2019-03-21T13:25:17.330Z,11.55
2019-03-21T13:26:25.539Z,11.55
2019-03-21T13:27:33.621Z,11.54
2019-03-21T13:28:41.565Z,11.54
2019-03-21T13:29:49.540Z,11.54
2019-03-21T13:30:58.110Z,11.54
2019-03-21T13:32:06.314Z,11.55
2019-03-21T13:33:14.424Z,11.57
2019-03-21T13:34:23.016Z,11.58
2019-03-21T13:35:32.957Z,11.60
2019-03-21T13:36:41.152Z,11.62
2019-03-21T13:37:49.696Z,11.62
2019-03-21T13:38:58.074Z,11.60
2019-03-21T13:40:07.814Z,11.62
2019-03-21T13:41:15.776Z,11.63
2019-03-21T13:42:24.131Z,11.58
2019-03-21T13:43:32.203Z,11.52
2019-03-21T13:44:40.495Z,11.50
2019-03-21T13:45:48.575Z,11.46
2019-03-21T13:46:56.820Z,11.43
2019-03-21T13:48:05.030Z,11.42
2019-03-21T13:49:13.028Z,11.40
2019-03-21T13:50:21.317Z,11.34
2019-03-21T13:51:29.517Z,11.31
2019-03-21T13:52:37.798Z,11.30
2019-03-21T13:53:45.979Z,11.29
2019-03-21T13:54:54.519Z,11.28
2019-03-21T13:56:02.827Z,11.26
2019-03-21T13:57:11.126Z,11.26
2019-03-21T13:58:19.322Z,11.27
2019-03-21T13:59:27.458Z,11.26
2019-03-21T14:00:35.797Z,11.25
2019-03-21T14:01:43.977Z,11.25
2019-03-21T14:02:52.188Z,11.24
2019-03-21T14:04:01.891Z,11.25
2019-03-21T14:05:10.976Z,11.23
2019-03-21T14:06:18.976Z,11.22
2019-03-21T14:07:27.454Z,11.22
2019-03-21T14:08:35.776Z,11.21
2019-03-21T14:09:43.785Z,11.24
2019-03-21T14:10:51.790Z,11.24
2019-03-21T14:11:59.974Z,11.24
2019-03-21T14:13:08.159Z,11.25
2019-03-21T14:14:16.316Z,11.26
2019-03-21T14:15:24.569Z,11.24
2019-03-21T14:16:32.533Z,11.25
2019-03-21T14:17:41.268Z,11.24
2019-03-21T14:18:49.503Z,11.22
2019-03-21T14:19:57.482Z,11.22
2019-03-21T14:21:05.567Z,11.23
2019-03-21T14:22:13.637Z,11.26
2019-03-21T14:23:21.746Z,11.27
2019-03-21T14:24:29.946Z,11.32
2019-03-21T14:25:38.148Z,11.31
2019-03-21T14:26:46.392Z,11.30
2019-03-21T14:27:54.656Z,11.30
2019-03-21T14:29:12.223Z,11.31
2019-03-21T14:30:18.579Z,11.29
2019-03-21T14:31:27.231Z,11.31
2019-03-21T14:32:35.429Z,11.36
2019-03-21T14:33:43.444Z,11.35
2019-03-21T14:34:51.563Z,11.37
2019-03-21T14:35:59.591Z,11.39
2019-03-21T14:37:07.666Z,11.38
2019-03-21T14:38:25.924Z,11.38
2019-03-21T14:39:25.854Z,11.42
2019-03-21T14:40:34.052Z,11.43
2019-03-21T14:41:42.290Z,11.38
2019-03-21T14:42:50.362Z,11.38
2019-03-21T14:43:58.344Z,11.39
2019-03-21T14:45:09.614Z,11.41
2019-03-21T14:46:17.710Z,11.39
2019-03-21T14:47:35.862Z,11.40
2019-03-21T14:48:35.783Z,11.40
2019-03-21T14:49:43.938Z,11.37
2019-03-21T14:50:52.321Z,11.37
2019-03-21T14:52:00.437Z,11.40
2019-03-21T14:53:08.451Z,11.39
2019-03-21T14:54:16.326Z,11.39
2019-03-21T14:55:24.652Z,11.39
2019-03-21T14:56:32.737Z,11.37
2019-03-21T14:57:40.942Z,11.35
2019-03-21T14:58:49.120Z,11.37
2019-03-21T14:59:57.014Z,11.38
2019-03-21T15:01:05.332Z,11.39
2019-03-21T15:02:13.326Z,11.38
2019-03-21T15:03:21.407Z,11.36
2019-03-21T15:04:29.627Z,11.37
2019-03-21T15:05:37.805Z,11.38
2019-03-21T15:06:45.911Z,11.36
2019-03-21T15:07:53.977Z,11.32
2019-03-21T15:09:01.962Z,11.28
2019-03-21T15:10:14.235Z,11.28
2019-03-21T15:11:22.320Z,11.27
2019-03-21T15:12:30.507Z,11.24